Total volume
$2,321
Trades
185
Unique wallets
148
Liquidity
$6,207
Latest YES mid
55¢
Latest NO mid
45¢
End date
2026-05-06
First seen
2026-05-06
last 05-06 21:56
Cohort breakdown
who's buying — by wallet tier SMI: -43.0¢ (top1%: 6% YES on $134 vs crowd: 49% YES on $2.0K)
By volume tier
Tier Wallets YES buy NO buy Net bias
🐬 Dolphin 2 $5 $47 $42
🐟 Fish 11 $20 $120 $100
🦐 Shrimp 135 $962 $855 +$107
By P&L percentile
Tier Wallets YES buy NO buy Net bias
🎯 Top 1% 9 $8 $125 $117
🏆 Top 5% 10 $93 $1 +$92
✅ Top 10% 14 $313 $85 +$228
Median 22 $116 $30 +$86
Below median 15 $32 $24 +$8
⚠️ Bottom 10% 13 $70 $48 +$23
🔻 Bottom 5% 12 $155 $224 $69
💀 Bottom 1% 6 $65 $38 +$27
unranked 47 $135 $447 $312
Wallet Side Net shares Cost basis Volume Trades Last activity
Feminine-Parent-Lens 0x8108…c791 Down +500 $180 $180 1 05-06 21:51
Dizzy-Microlending 0xc6c6…b0ac Up +461 $300 $300 1 05-06 21:51
Unused-Brow 0x8c2f…584e Down +286 $100 $100 1 05-06 21:51
Monstrous-Dew 0x5b63…11a4 Down +184 $65 $65 1 05-06 21:51
Pale-Bore 0x1995…9921 Down +150 $54 $54 1 05-06 21:51
Some-Playground 0xb0b5…cb05 Down +139 $50 $50 1 05-06 21:51
Impossible-Bolt 0xc905…b394 Down +128 $46 $46 1 05-06 21:51
Sugary-Rosemary 0x5010…6f49 Down +86 $31 $31 1 05-06 21:51
Popular-Insurrection 0xeebd…ba30 Down +85 $31 $31 2 05-06 21:51
Polite-Wink 0xcfb3…8129 Up +76 $50 $50 1 05-06 21:51
Skinny-Payoff 0x80c2…f29e Up +76 $50 $50 1 05-06 21:51
Agile-Acknowledgment 0xd4d1…086e Down +74 $25 $25 1 05-06 21:51
Zesty-Blowhole 0x1cd1…53ab Down +69 $25 $25 1 05-06 21:51
Flamboyant-Youth 0xebfb…ba26 Down +69 $25 $25 1 05-06 21:51
Wild-Speculation 0xf788…6cdb Down +69 $25 $25 1 05-06 21:51
Mountainous-Buy 0x4228…34cb Down +65 $23 $23 1 05-06 21:51
Intentional-Coincidence 0xcbd5…f18c Up +62 $40 $40 1 05-06 21:51
Frigid-Swath 0xc35d…0143 Up +58 $38 $38 1 05-06 21:51
Silky-Miscommunication 0x5028…c9cd Down +56 $20 $20 1 05-06 21:51
Red-Interaction 0x6638…1312 Down +50 $18 $18 1 05-06 21:51
Harmless-Brushing-Deadline 0xcea9…c5d8 Down +47 $17 $17 1 05-06 21:51
Tempting-Bow 0xed0c…5647 Up +46 $30 $30 1 05-06 21:51
(anonymous) 0xe907…cff6 Down +46 $16 $16 1 05-06 21:51
Spicy-Perception 0xe543…ecd4 Down +41 $15 $15 2 05-06 21:51
Imaginative-Duty-Improvement 0xa8dd…e770 Down +41 $15 $15 1 05-06 21:51
Boiling-Sepal 0xdd63…a39a Down +41 $15 $15 1 05-06 21:51
Blind-Plight 0x6dd5…0d94 Down +40 $15 $15 2 05-06 21:51
Lustrous-Underwire 0x292b…a5a2 Up +39 $25 $25 1 05-06 21:51
Austere-Delivery 0xe6f2…afa3 Up +38 $25 $25 1 05-06 21:51
Rash-Smog 0x3720…9aaa Up +38 $24 $24 1 05-06 21:51
Worse-Icebreaker 0xb51b…78a9 Down +32 $12 $12 1 05-06 21:51
(anonymous) 0x3363…5e3f Down +31 $11 $11 3 05-06 21:51
Bitter-Optimization 0xcc79…28e2 Up +31 $20 $20 1 05-06 21:51
Popular-Juice 0x6acf…ad83 Up +30 $20 $20 1 05-06 21:51
Soulful-Emitter-Hose 0x9f9e…7fd8 Down +28 $10 $10 1 05-06 21:51
Inborn-Blind 0xe683…8266 Down +28 $10 $10 1 05-06 21:51
Automatic-Whirlwind 0xcbff…ce3b Down +28 $10 $10 1 05-06 21:51
Pungent-Activist 0x8b60…94d1 Down +28 $10 $10 2 05-06 21:51
Jumbo-Optimist 0x48a1…9e12 Up +23 $15 $15 3 05-06 21:51
Untimely-Rebel 0x612f…468c Up +23 $15 $15 1 05-06 21:51
Excitable-Skill 0x2f91…0a10 Down +22 $8 $8 1 05-06 21:51
Aged-Visit 0x2ea2…d3d7 Down +20 $8 $8 2 05-06 21:51
Upset-Sight 0xe022…6603 Down +20 $7 $7 1 05-06 21:51
Excitable-Silica 0x8aa4…d419 Up +16 $10 $10 1 05-06 21:51
(anonymous) 0x7a92…292f Up +15 $10 $10 1 05-06 21:51
Outgoing-Barge 0xc878…6648 Up +15 $10 $10 1 05-06 21:51
Advanced-Gesture 0x963f…4487 Up +15 $10 $10 1 05-06 21:51
Infamous-Prow 0xd590…f097 Up +15 $10 $10 1 05-06 21:51
(anonymous) 0x8176…709a Up +13 $8 $8 1 05-06 21:51
Left-Fetus 0xf455…9d55 Up +12 $8 $8 2 05-06 21:51
Stale-Ear 0x4bd3…ca6d Up +12 $8 $8 2 05-06 21:51
Nocturnal-Strawman 0x21e6…d490 Up +12 $8 $8 1 05-06 21:51
Internal-Actor 0xd5c3…38e6 Up +11 $7 $7 1 05-06 21:51
(anonymous) 0xe548…2ecf Up +10 $7 $7 1 05-06 21:51
Mushy-Realization 0x6804…4b99 Up +9 $6 $6 3 05-06 21:51
Crazy-Original 0x0ef7…9544 Up +9 $6 $6 1 05-06 21:51
Helpful-Wasp 0xd693…0c8a Up +8 $5 $5 1 05-06 21:51
Acidic-Premeditation 0xe77d…caf1 Up +8 $5 $5 1 05-06 21:51
Cultivated-Premium 0xf944…ef91 Up +8 $5 $5 1 05-06 21:51
Sweltering-Physical 0x41ee…655f Up +8 $5 $5 1 05-06 21:51